createdAt,value
2022-08-22T00:01:17.184Z,62.49
2022-08-22T00:02:43.675Z,64.75
2022-08-22T00:02:48.677Z,65.50
2022-08-22T00:03:00.471Z,66.35
2022-08-22T00:03:06.994Z,61.45
2022-08-22T00:03:10.197Z,60.62
2022-08-22T00:04:02.466Z,62.45
2022-08-22T00:06:49.056Z,62.43
2022-08-22T00:09:36.520Z,62.58
2022-08-22T00:12:18.512Z,62.89
2022-08-22T00:14:59.997Z,62.98
2022-08-22T00:17:45.701Z,63.08
2022-08-22T00:20:26.402Z,63.47
2022-08-22T00:23:06.059Z,63.52
2022-08-22T00:25:47.943Z,63.74
2022-08-22T00:28:24.091Z,63.60
2022-08-22T00:31:03.636Z,63.77
2022-08-22T00:33:43.178Z,63.82
2022-08-22T00:36:24.358Z,63.96
2022-08-22T00:39:12.196Z,63.95
2022-08-22T00:42:38.207Z,64.23
2022-08-22T00:45:49.378Z,63.95
2022-08-22T00:49:06.979Z,63.93
2022-08-22T00:52:27.513Z,63.83
2022-08-22T00:55:37.713Z,64.24
2022-08-22T00:58:49.228Z,63.93
2022-08-22T01:01:31.198Z,64.52
2022-08-22T01:04:35.809Z,64.47
2022-08-22T01:07:38.367Z,65.15
2022-08-22T01:10:40.039Z,64.84
2022-08-22T01:13:37.500Z,65.00
2022-08-22T01:16:28.560Z,64.83
2022-08-22T01:19:26.978Z,65.12
2022-08-22T01:22:28.600Z,65.49
2022-08-22T01:25:45.806Z,66.25
2022-08-22T01:29:28.443Z,66.34
2022-08-22T01:33:00.095Z,66.45
2022-08-22T01:36:19.165Z,66.68
2022-08-22T01:39:29.673Z,67.25
2022-08-22T01:42:40.238Z,67.48
2022-08-22T01:45:47.088Z,67.52
2022-08-22T01:48:23.494Z,67.55
2022-08-22T01:50:57.632Z,68.01
2022-08-22T01:53:40.640Z,68.24
2022-08-22T01:56:16.957Z,68.17
2022-08-22T01:58:57.344Z,67.87
2022-08-22T02:01:47.845Z,67.92
2022-08-22T02:04:38.785Z,68.67
2022-08-22T02:07:16.020Z,68.70
2022-08-22T02:10:02.441Z,69.12
2022-08-22T02:12:45.623Z,68.96
2022-08-22T02:15:25.627Z,69.06
2022-08-22T02:18:23.337Z,69.33
2022-08-22T02:21:06.520Z,69.27
2022-08-22T02:23:51.228Z,69.42
2022-08-22T02:26:27.336Z,69.78
2022-08-22T02:29:02.100Z,70.15
2022-08-22T02:31:48.816Z,70.37
2022-08-22T02:34:32.799Z,70.82
2022-08-22T02:37:11.865Z,70.89
2022-08-22T02:39:52.820Z,70.91
2022-08-22T02:42:30.204Z,71.19
2022-08-22T02:45:13.600Z,71.15
2022-08-22T02:47:57.012Z,70.94
2022-08-22T02:50:39.493Z,71.38
2022-08-22T02:53:18.863Z,71.36
2022-08-22T02:55:59.020Z,71.70
2022-08-22T02:58:44.151Z,71.41
2022-08-22T03:01:34.848Z,71.48
2022-08-22T03:04:42.078Z,71.18
2022-08-22T03:07:24.779Z,71.44
2022-08-22T03:10:12.162Z,71.34
2022-08-22T03:12:53.634Z,71.42
2022-08-22T03:15:34.217Z,71.20
2022-08-22T03:18:17.584Z,71.30
2022-08-22T03:20:54.396Z,71.57
2022-08-22T03:23:42.260Z,71.63
2022-08-22T03:26:19.482Z,71.82
2022-08-22T03:28:59.840Z,71.69
2022-08-22T03:31:32.446Z,72.00
2022-08-22T03:34:27.284Z,71.43
2022-08-22T03:37:13.643Z,71.28
2022-08-22T03:39:58.876Z,71.38
2022-08-22T03:43:10.787Z,71.64
2022-08-22T03:46:41.794Z,71.57
2022-08-22T03:49:59.773Z,70.97
2022-08-22T03:53:18.439Z,70.62
2022-08-22T03:56:34.104Z,70.81
2022-08-22T04:00:06.350Z,70.58
2022-08-22T04:03:13.527Z,70.79
2022-08-22T04:06:22.016Z,70.93
2022-08-22T04:09:56.947Z,71.01
2022-08-22T04:13:05.829Z,70.93
2022-08-22T04:16:12.692Z,70.93
2022-08-22T04:19:11.613Z,71.87
2022-08-22T04:22:09.063Z,71.49
2022-08-22T04:25:04.700Z,71.20
2022-08-22T04:27:44.983Z,71.20
2022-08-22T04:30:25.809Z,71.58
2022-08-22T04:33:03.476Z,71.63
2022-08-22T04:35:37.333Z,71.80
2022-08-22T04:38:18.092Z,71.32
2022-08-22T04:40:53.790Z,71.36
2022-08-22T04:43:31.086Z,71.01
2022-08-22T04:46:11.408Z,71.20
2022-08-22T04:48:46.650Z,71.17
2022-08-22T04:51:26.525Z,70.94
2022-08-22T04:54:19.463Z,70.94
2022-08-22T04:57:09.144Z,70.52
2022-08-22T04:59:38.259Z,70.58
2022-08-22T05:02:12.078Z,70.30
2022-08-22T05:04:45.444Z,70.14
2022-08-22T05:07:35.889Z,70.17
2022-08-22T05:10:13.954Z,69.96
2022-08-22T05:12:50.186Z,69.99
2022-08-22T05:15:25.809Z,69.47
2022-08-22T05:18:01.669Z,69.45
2022-08-22T05:20:32.140Z,69.53
2022-08-22T05:23:17.479Z,69.47
2022-08-22T05:25:57.178Z,69.41
2022-08-22T05:28:35.324Z,69.38
2022-08-22T05:31:09.850Z,69.33
2022-08-22T05:33:44.241Z,69.31
2022-08-22T05:36:25.425Z,69.43
2022-08-22T05:39:01.472Z,69.48
2022-08-22T05:41:38.907Z,69.20
2022-08-22T05:44:20.113Z,69.42
2022-08-22T05:47:01.269Z,69.17
2022-08-22T05:49:40.003Z,69.22
2022-08-22T05:52:22.651Z,69.03
2022-08-22T05:54:59.218Z,68.82
2022-08-22T05:57:35.996Z,68.87
2022-08-22T06:00:11.294Z,68.89
2022-08-22T06:03:03.064Z,69.22
2022-08-22T06:05:41.336Z,69.39
2022-08-22T06:08:23.504Z,69.53
2022-08-22T06:10:59.307Z,69.41
2022-08-22T06:13:41.554Z,69.79
2022-08-22T06:16:18.166Z,69.59
2022-08-22T06:18:47.311Z,69.92
2022-08-22T06:21:27.436Z,69.79
2022-08-22T06:24:00.377Z,69.72
2022-08-22T06:26:39.380Z,69.74
2022-08-22T06:29:10.909Z,70.15
2022-08-22T06:31:48.177Z,70.24
2022-08-22T06:34:25.710Z,70.19
2022-08-22T06:36:59.042Z,70.47
2022-08-22T06:39:34.222Z,70.08
2022-08-22T06:42:10.325Z,70.54
2022-08-22T06:44:48.478Z,70.44
2022-08-22T06:47:23.424Z,70.39
2022-08-22T06:50:01.260Z,71.09
2022-08-22T06:52:50.220Z,70.95
2022-08-22T06:55:19.817Z,70.82
2022-08-22T06:57:56.761Z,70.75
2022-08-22T07:00:28.489Z,71.03
2022-08-22T07:03:02.934Z,70.75
2022-08-22T07:05:39.101Z,70.74
2022-08-22T07:08:13.701Z,70.56
2022-08-22T07:10:45.157Z,70.53
2022-08-22T07:13:18.990Z,70.36
2022-08-22T07:15:56.517Z,70.55
2022-08-22T07:18:32.116Z,70.16
2022-08-22T07:21:04.883Z,69.92
2022-08-22T07:23:40.484Z,69.72
2022-08-22T07:26:30.683Z,69.18
2022-08-22T07:29:11.245Z,68.80
2022-08-22T07:31:57.625Z,68.91
2022-08-22T07:34:44.791Z,68.80
2022-08-22T07:37:27.812Z,68.29
2022-08-22T07:40:08.179Z,68.07
2022-08-22T07:42:48.192Z,67.71
2022-08-22T07:45:26.395Z,68.02
2022-08-22T07:48:25.128Z,67.99
2022-08-22T07:51:10.120Z,67.66
2022-08-22T07:53:44.450Z,67.44
2022-08-22T07:56:20.867Z,68.31
2022-08-22T07:58:55.667Z,68.42
2022-08-22T08:01:26.969Z,68.63
2022-08-22T08:04:02.102Z,68.61
2022-08-22T08:06:31.986Z,68.84
2022-08-22T08:09:00.945Z,68.69
2022-08-22T08:11:42.865Z,68.48
2022-08-22T08:14:16.756Z,68.45
2022-08-22T08:17:02.087Z,67.79
2022-08-22T08:19:36.825Z,67.72
2022-08-22T08:22:06.472Z,67.33
2022-08-22T08:24:42.731Z,67.27
2022-08-22T08:27:34.599Z,67.19
2022-08-22T08:30:15.399Z,67.16
2022-08-22T08:32:57.520Z,66.99
2022-08-22T08:36:03.553Z,67.19
2022-08-22T08:38:40.713Z,67.08
2022-08-22T08:41:46.584Z,66.67
2022-08-22T08:44:59.895Z,66.37
2022-08-22T08:47:54.936Z,66.23
2022-08-22T08:50:56.492Z,65.81
2022-08-22T08:53:53.764Z,66.20
2022-08-22T08:56:37.138Z,65.99
2022-08-22T08:59:25.695Z,66.13
2022-08-22T09:02:33.113Z,66.13
2022-08-22T09:05:42.107Z,66.46
2022-08-22T09:08:59.109Z,66.25
2022-08-22T09:12:15.952Z,66.54
2022-08-22T09:15:22.283Z,65.96
2022-08-22T09:18:46.546Z,65.83
2022-08-22T09:22:14.724Z,66.21
2022-08-22T09:25:17.364Z,65.23
2022-08-22T09:27:59.760Z,65.20
2022-08-22T09:31:21.807Z,64.85
2022-08-22T09:34:05.349Z,65.07
2022-08-22T09:36:50.287Z,65.22
2022-08-22T09:39:29.932Z,65.03
2022-08-22T09:42:13.027Z,65.22
2022-08-22T09:44:59.729Z,64.93
2022-08-22T09:47:35.233Z,64.31
2022-08-22T09:50:17.663Z,63.80
2022-08-22T09:53:05.735Z,62.86
2022-08-22T09:55:50.155Z,62.58
2022-08-22T09:58:28.802Z,62.44
2022-08-22T10:01:02.982Z,62.02
2022-08-22T10:04:35.362Z,62.01
2022-08-22T10:07:25.597Z,61.37
2022-08-22T10:10:06.984Z,61.32
2022-08-22T10:12:52.477Z,61.32
2022-08-22T10:15:36.781Z,61.62
2022-08-22T10:18:26.185Z,61.78
2022-08-22T10:21:13.246Z,62.17
2022-08-22T10:23:53.788Z,62.25
2022-08-22T10:26:38.760Z,62.50
2022-08-22T10:29:47.301Z,61.85
2022-08-22T10:32:34.557Z,61.37
2022-08-22T10:35:19.650Z,61.63
2022-08-22T10:37:57.761Z,61.72
2022-08-22T10:40:36.106Z,61.55
2022-08-22T10:43:14.521Z,61.75
2022-08-22T10:45:48.014Z,61.65
2022-08-22T10:48:46.296Z,61.84
2022-08-22T10:51:28.824Z,61.96
2022-08-22T10:54:38.536Z,61.75
2022-08-22T10:57:23.729Z,62.17
2022-08-22T11:00:02.554Z,62.04
2022-08-22T11:02:44.822Z,60.95
2022-08-22T11:05:35.712Z,60.67
2022-08-22T11:08:42.965Z,60.56
2022-08-22T11:11:32.639Z,59.71
2022-08-22T11:14:49.269Z,60.03
2022-08-22T11:17:40.719Z,60.27
2022-08-22T11:20:29.737Z,58.94
2022-08-22T11:23:22.672Z,58.70
2022-08-22T11:26:04.176Z,58.50
2022-08-22T11:29:29.459Z,59.22
2022-08-22T11:32:08.414Z,59.63
2022-08-22T11:34:57.214Z,59.33
2022-08-22T11:37:51.334Z,57.91
2022-08-22T11:40:41.693Z,57.41
2022-08-22T11:43:39.323Z,56.56
2022-08-22T11:46:23.304Z,56.74
2022-08-22T11:49:26.895Z,56.99
2022-08-22T11:52:29.660Z,57.60
2022-08-22T11:55:19.912Z,56.99
2022-08-22T11:57:54.149Z,56.58
2022-08-22T12:00:33.540Z,56.27
2022-08-22T12:03:43.642Z,56.77
2022-08-22T12:06:48.451Z,56.58
2022-08-22T12:09:52.172Z,56.30
2022-08-22T12:12:51.361Z,55.42
2022-08-22T12:15:24.691Z,55.72
2022-08-22T12:18:42.249Z,56.21
2022-08-22T12:21:47.002Z,55.28
2022-08-22T12:24:43.612Z,55.32
2022-08-22T12:27:55.227Z,55.65
2022-08-22T12:30:38.857Z,55.12
2022-08-22T12:33:49.647Z,55.43
2022-08-22T12:37:05.172Z,55.03
2022-08-22T12:40:17.541Z,54.91
2022-08-22T12:43:18.840Z,55.06
2022-08-22T12:46:13.523Z,54.94
2022-08-22T12:49:10.732Z,54.58
2022-08-22T12:52:04.562Z,54.47
2022-08-22T12:55:09.104Z,54.89
2022-08-22T12:57:50.481Z,54.33
2022-08-22T13:00:35.668Z,54.71
2022-08-22T13:03:12.479Z,54.74
2022-08-22T13:05:46.399Z,54.55
2022-08-22T13:08:32.725Z,54.28
2022-08-22T13:11:09.986Z,53.70
2022-08-22T13:13:57.698Z,53.93
2022-08-22T13:16:40.372Z,53.68
2022-08-22T13:19:22.808Z,53.84
2022-08-22T13:22:00.393Z,53.37
2022-08-22T13:24:40.237Z,53.34
2022-08-22T13:27:24.899Z,53.00
2022-08-22T13:30:00.852Z,53.51
2022-08-22T13:32:37.673Z,53.55
2022-08-22T13:35:11.683Z,53.54
2022-08-22T13:37:50.223Z,53.13
2022-08-22T13:40:29.252Z,53.00
2022-08-22T13:43:06.956Z,53.32
2022-08-22T13:45:38.379Z,53.48
2022-08-22T13:48:15.668Z,53.31
2022-08-22T13:51:17.190Z,53.27
2022-08-22T13:54:02.205Z,53.60
2022-08-22T13:56:47.220Z,53.37
2022-08-22T13:59:50.292Z,53.67
2022-08-22T14:02:43.682Z,53.46
2022-08-22T14:05:23.295Z,53.73
2022-08-22T14:08:12.935Z,53.61
2022-08-22T14:10:54.992Z,53.51
2022-08-22T14:13:41.798Z,54.03
2022-08-22T14:16:21.982Z,53.73
2022-08-22T14:18:55.949Z,53.81
2022-08-22T14:21:40.653Z,53.86
2022-08-22T14:24:25.762Z,53.59
2022-08-22T14:27:05.582Z,53.16
2022-08-22T14:29:50.223Z,52.81
2022-08-22T14:32:42.490Z,52.64
2022-08-22T14:35:29.268Z,52.95
2022-08-22T14:38:29.839Z,52.78
2022-08-22T14:41:06.650Z,52.81
2022-08-22T14:43:52.722Z,52.11
2022-08-22T14:46:30.535Z,51.83
2022-08-22T14:49:26.993Z,51.22
2022-08-22T14:52:09.447Z,51.23
2022-08-22T14:54:43.463Z,51.51
2022-08-22T14:57:20.361Z,51.60
2022-08-22T14:59:53.107Z,51.19
2022-08-22T15:02:29.487Z,50.77
2022-08-22T15:05:13.391Z,50.55
2022-08-22T15:07:42.918Z,50.39
2022-08-22T15:10:33.298Z,49.92
2022-08-22T15:13:08.313Z,50.06
2022-08-22T15:15:52.853Z,49.87
2022-08-22T15:18:36.721Z,49.63
2022-08-22T15:21:11.267Z,50.31
2022-08-22T15:23:46.971Z,50.68
2022-08-22T15:26:28.100Z,50.68
2022-08-22T15:29:09.692Z,50.71
2022-08-22T15:31:43.523Z,51.19
2022-08-22T15:34:25.196Z,51.91
2022-08-22T15:37:22.023Z,52.51
2022-08-22T15:40:12.032Z,52.43
2022-08-22T15:42:47.091Z,52.70
2022-08-22T15:45:34.817Z,53.25
2022-08-22T15:48:25.226Z,53.45
2022-08-22T15:51:01.279Z,54.34
2022-08-22T15:53:54.684Z,54.48
2022-08-22T15:56:30.466Z,54.95
2022-08-22T15:59:30.845Z,55.73
2022-08-22T16:02:30.311Z,56.46
2022-08-22T16:05:26.342Z,56.82
2022-08-22T16:08:06.444Z,57.12
2022-08-22T16:10:42.876Z,57.25
2022-08-22T16:13:39.092Z,57.62
2022-08-22T16:16:35.294Z,57.85
2022-08-22T16:19:24.068Z,58.32
2022-08-22T16:22:14.484Z,58.26
2022-08-22T16:25:10.188Z,58.48
2022-08-22T16:28:00.707Z,58.93
2022-08-22T16:30:39.338Z,59.25
2022-08-22T16:33:18.023Z,59.14
2022-08-22T16:36:42.555Z,59.77
2022-08-22T16:39:33.905Z,60.54
2022-08-22T16:42:28.605Z,60.65
2022-08-22T16:45:12.321Z,60.61
2022-08-22T16:47:52.817Z,60.96
2022-08-22T16:50:41.065Z,60.89
2022-08-22T16:53:52.037Z,61.53
2022-08-22T16:56:32.673Z,61.74
2022-08-22T16:59:38.204Z,62.16
2022-08-22T17:02:44.772Z,62.30
2022-08-22T17:05:31.260Z,62.36
2022-08-22T17:08:35.565Z,62.35
2022-08-22T17:11:27.405Z,62.45
2022-08-22T17:14:18.904Z,62.35
2022-08-22T17:17:14.863Z,62.85
2022-08-22T17:20:05.779Z,63.04
2022-08-22T17:22:49.073Z,62.79
2022-08-22T17:25:32.700Z,63.10
2022-08-22T17:28:22.541Z,63.16
2022-08-22T17:31:05.807Z,63.29
2022-08-22T17:34:01.860Z,63.66
2022-08-22T17:36:47.796Z,63.51
2022-08-22T17:39:36.760Z,63.66
2022-08-22T17:42:47.826Z,64.48
2022-08-22T17:45:29.929Z,64.03
2022-08-22T17:48:11.590Z,64.75
2022-08-22T17:50:50.000Z,64.67
2022-08-22T17:53:37.286Z,65.36
2022-08-22T17:56:22.448Z,65.72
2022-08-22T17:59:08.536Z,65.83
2022-08-22T18:01:51.061Z,66.18
2022-08-22T18:04:30.542Z,66.66
2022-08-22T18:07:42.140Z,66.90
2022-08-22T18:10:23.539Z,66.88
2022-08-22T18:13:07.187Z,66.91
2022-08-22T18:15:51.422Z,66.94
2022-08-22T18:18:32.552Z,67.05
2022-08-22T18:21:11.494Z,66.94
2022-08-22T18:23:49.777Z,66.61
2022-08-22T18:26:27.856Z,66.99
2022-08-22T18:29:07.052Z,66.68
2022-08-22T18:31:53.337Z,66.62
2022-08-22T18:34:41.148Z,66.99
2022-08-22T18:37:24.642Z,67.40
2022-08-22T18:40:12.302Z,67.39
2022-08-22T18:42:50.153Z,67.41
2022-08-22T18:45:44.304Z,67.59
2022-08-22T18:48:27.550Z,67.81
2022-08-22T18:51:24.973Z,68.25
2022-08-22T18:54:01.313Z,67.94
2022-08-22T18:56:51.275Z,68.59
2022-08-22T18:59:57.194Z,69.39
2022-08-22T19:03:18.388Z,69.88
2022-08-22T19:06:28.126Z,70.55
2022-08-22T19:09:48.783Z,71.22
2022-08-22T19:12:52.695Z,71.71
2022-08-22T19:15:39.541Z,72.03
2022-08-22T19:18:42.534Z,72.26
2022-08-22T19:21:42.582Z,72.44
2022-08-22T19:24:36.992Z,72.66
2022-08-22T19:27:31.131Z,72.81
2022-08-22T19:30:07.571Z,72.82
2022-08-22T19:33:04.165Z,73.13
2022-08-22T19:36:02.134Z,73.39
2022-08-22T19:39:09.019Z,73.62
2022-08-22T19:41:58.704Z,73.73
2022-08-22T19:44:46.721Z,73.67
2022-08-22T19:47:31.725Z,73.86
2022-08-22T19:50:08.874Z,73.92
2022-08-22T19:53:12.134Z,74.22
2022-08-22T19:56:12.954Z,74.51
2022-08-22T19:59:04.465Z,74.40
2022-08-22T20:02:09.132Z,74.72
2022-08-22T20:05:22.735Z,74.64
2022-08-22T20:08:18.835Z,74.51
2022-08-22T20:11:10.195Z,75.36
2022-08-22T20:13:40.477Z,74.85
2022-08-22T20:16:21.507Z,74.90
2022-08-22T20:19:08.800Z,75.01
2022-08-22T20:21:55.675Z,75.45
2022-08-22T20:24:36.595Z,75.15
2022-08-22T20:27:18.168Z,75.57
2022-08-22T20:30:02.297Z,75.57
2022-08-22T20:32:42.755Z,75.79
2022-08-22T20:35:23.934Z,75.79
2022-08-22T20:38:06.759Z,75.77
2022-08-22T20:40:55.403Z,76.49
2022-08-22T20:43:35.553Z,76.65
2022-08-22T20:46:24.997Z,77.17
2022-08-22T20:48:57.292Z,77.47
2022-08-22T20:51:31.611Z,77.65
2022-08-22T20:54:10.087Z,78.32
2022-08-22T20:56:52.845Z,78.44
2022-08-22T20:59:37.232Z,79.65
2022-08-22T21:02:22.852Z,79.91
2022-08-22T21:05:00.239Z,80.19
2022-08-22T21:07:32.783Z,80.10
2022-08-22T21:10:24.206Z,80.62
2022-08-22T21:13:12.924Z,80.94
2022-08-22T21:15:48.899Z,81.83
2022-08-22T21:18:32.576Z,81.77
2022-08-22T21:21:17.336Z,81.57
2022-08-22T21:23:50.335Z,82.07
2022-08-22T21:26:25.524Z,81.96
2022-08-22T21:29:02.039Z,81.54
2022-08-22T21:31:36.559Z,82.00
2022-08-22T21:34:05.961Z,81.87
2022-08-22T21:36:39.975Z,81.42
2022-08-22T21:39:20.516Z,81.81
2022-08-22T21:41:53.252Z,81.87
2022-08-22T21:44:33.307Z,81.95
2022-08-22T21:47:31.234Z,82.11
2022-08-22T21:50:18.741Z,82.05
2022-08-22T21:53:11.952Z,82.44
2022-08-22T21:55:44.557Z,82.03
2022-08-22T21:58:35.892Z,82.11
2022-08-22T22:01:31.338Z,82.09
2022-08-22T22:04:01.737Z,82.29
2022-08-22T22:06:31.750Z,82.12
2022-08-22T22:09:00.446Z,82.31
2022-08-22T22:11:29.430Z,82.34
2022-08-22T22:13:58.168Z,82.17
2022-08-22T22:16:30.002Z,82.17
2022-08-22T22:18:58.614Z,81.91
2022-08-22T22:21:28.970Z,82.22
2022-08-22T22:23:58.581Z,82.16
2022-08-22T22:26:28.787Z,82.19
2022-08-22T22:28:59.259Z,82.21
2022-08-22T22:31:28.375Z,82.38
2022-08-22T22:33:57.073Z,82.24
2022-08-22T22:36:28.828Z,82.45
2022-08-22T22:38:57.797Z,82.46
2022-08-22T22:41:26.633Z,82.84
2022-08-22T22:43:56.558Z,83.02
2022-08-22T22:46:27.304Z,82.94
2022-08-22T22:48:57.544Z,83.35
2022-08-22T22:51:26.343Z,82.97
2022-08-22T22:53:57.951Z,82.74
2022-08-22T22:56:26.829Z,83.17
2022-08-22T22:58:59.229Z,83.49
2022-08-22T23:01:35.009Z,83.13
2022-08-22T23:04:05.997Z,83.16
2022-08-22T23:06:36.587Z,83.10
2022-08-22T23:09:06.717Z,83.10
2022-08-22T23:11:36.735Z,83.15
2022-08-22T23:14:05.495Z,83.44
2022-08-22T23:16:37.337Z,83.24
2022-08-22T23:19:10.596Z,83.41
2022-08-22T23:21:39.869Z,83.32
2022-08-22T23:24:11.306Z,83.26
2022-08-22T23:26:40.717Z,83.16
2022-08-22T23:29:09.850Z,83.16
2022-08-22T23:31:42.135Z,83.03
2022-08-22T23:34:14.386Z,83.04
2022-08-22T23:36:46.815Z,83.11
2022-08-22T23:39:18.883Z,83.58
2022-08-22T23:41:48.007Z,83.51
2022-08-22T23:44:22.210Z,83.53
2022-08-22T23:46:52.107Z,83.42
2022-08-22T23:49:21.161Z,83.44
2022-08-22T23:51:50.828Z,83.37
2022-08-22T23:54:22.575Z,83.40
2022-08-22T23:56:54.791Z,83.24
2022-08-22T23:59:30.504Z,83.49
